Time;durP1;ratioP1;P1;durP2;ratioP2;P2;SDS_P1;SDS_P2;PMS_P1;PMS_P2;Temp;Humidity;BMP_temperature;BMP_pressure;BME280_temperature;BME280_humidity;BME280_pressure;Samples;Min_cycle;Max_cycle;Signal;HPM_P1;HPM_P2
2022/11/09 00:00:39;;;;;;;27.20;16.90;;;7.60;99.90;;;;;;5004308;28;20034;-86
2022/11/09 00:03:06;;;;;;;27.70;18.15;;;7.70;99.90;;;;;;5009122;28;20053;-87
2022/11/09 00:05:32;;;;;;;27.85;19.50;;;7.70;99.90;;;;;;5004026;28;20026;-86
2022/11/09 00:07:58;;;;;;;33.00;20.48;;;7.70;99.90;;;;;;4993015;28;20506;-87
2022/11/09 00:10:24;;;;;;;29.73;18.38;;;7.70;99.90;;;;;;5010088;28;20026;-88
2022/11/09 00:12:50;;;;;;;29.63;18.77;;;7.80;99.90;;;;;;5001112;28;20123;-86
2022/11/09 00:15:19;;;;;;;31.13;18.73;;;7.80;99.90;;;;;;5000319;28;20160;-87
2022/11/09 00:17:45;;;;;;;28.05;17.42;;;7.80;99.90;;;;;;5000007;28;20042;-85
2022/11/09 00:20:15;;;;;;;28.55;18.02;;;7.80;99.90;;;;;;5005662;28;20019;-83
2022/11/09 00:22:40;;;;;;;31.52;19.85;;;7.80;99.90;;;;;;5007566;28;20023;-86
2022/11/09 00:25:07;;;;;;;29.67;19.52;;;7.80;99.90;;;;;;5019805;28;20045;-85
2022/11/09 00:27:33;;;;;;;32.65;19.60;;;7.80;99.90;;;;;;5001179;28;20022;-88
2022/11/09 00:29:59;;;;;;;26.55;17.48;;;7.80;99.90;;;;;;5005905;28;20081;-86
2022/11/09 00:32:25;;;;;;;28.05;17.08;;;7.80;99.90;;;;;;5017323;28;20019;-85
2022/11/09 00:34:51;;;;;;;34.47;19.65;;;7.80;99.90;;;;;;4993809;28;20072;-89
2022/11/09 00:37:20;;;;;;;32.85;19.60;;;7.80;99.90;;;;;;4998381;28;20033;-86
2022/11/09 00:39:45;;;;;;;29.52;18.13;;;7.80;99.90;;;;;;5003267;28;20026;-87
2022/11/09 00:42:11;;;;;;;33.25;19.10;;;7.70;99.90;;;;;;5000284;28;20031;-88
2022/11/09 00:44:37;;;;;;;30.17;17.40;;;7.70;99.90;;;;;;4989054;28;20054;-87
2022/11/09 00:47:03;;;;;;;29.35;19.90;;;7.70;99.90;;;;;;5011571;28;20041;-88
2022/11/09 00:49:29;;;;;;;33.38;18.45;;;7.70;99.90;;;;;;5013209;28;20035;-88
2022/11/09 00:51:55;;;;;;;29.38;18.95;;;7.70;99.90;;;;;;5013810;28;20038;-87
2022/11/09 00:54:21;;;;;;;31.33;20.77;;;7.80;99.90;;;;;;5017334;28;20057;-89
2022/11/09 00:56:46;;;;;;;37.42;21.02;;;7.80;99.90;;;;;;5009404;28;20136;-87
2022/11/09 00:59:12;;;;;;;37.03;20.45;;;7.90;99.90;;;;;;4997448;28;20025;-89
2022/11/09 01:01:38;;;;;;;30.30;20.85;;;7.90;99.90;;;;;;4998065;28;20030;-89
2022/11/09 01:04:04;;;;;;;31.13;20.20;;;7.90;99.90;;;;;;4997287;28;20026;-88
2022/11/09 01:06:30;;;;;;;29.50;18.25;;;7.90;99.90;;;;;;4996427;28;20038;-89
2022/11/09 01:08:57;;;;;;;29.75;19.75;;;8.00;99.90;;;;;;4996816;28;20098;-88
2022/11/09 01:11:23;;;;;;;39.70;21.13;;;8.00;99.90;;;;;;4998157;28;20036;-90
2022/11/09 01:13:50;;;;;;;30.27;19.25;;;8.00;99.90;;;;;;4998991;28;20030;-88
2022/11/09 01:16:19;;;;;;;33.83;20.33;;;8.10;99.90;;;;;;5007606;28;20141;-89
2022/11/09 01:18:45;;;;;;;38.88;21.23;;;8.10;99.90;;;;;;4997305;28;20097;-87
2022/11/09 01:21:14;;;;;;;39.78;21.50;;;8.00;99.90;;;;;;4996024;28;20026;-86
2022/11/09 01:23:44;;;;;;;34.67;21.20;;;8.00;99.90;;;;;;5012046;28;20026;-88
2022/11/09 01:26:13;;;;;;;33.63;20.50;;;8.00;99.90;;;;;;5002606;28;20046;-88
2022/11/09 01:28:39;;;;;;;33.85;20.77;;;8.00;99.90;;;;;;5006043;28;20034;-88
2022/11/09 01:31:10;;;;;;;33.83;21.08;;;7.90;99.90;;;;;;5015838;28;20078;-88
2022/11/09 01:33:36;;;;;;;39.30;23.42;;;7.90;99.90;;;;;;4996710;28;20124;-88
2022/11/09 01:36:05;;;;;;;37.38;21.58;;;7.90;99.90;;;;;;5010599;28;20061;-88
2022/11/09 01:38:31;;;;;;;40.15;24.27;;;7.90;99.90;;;;;;4994673;28;20069;-86
2022/11/09 01:40:57;;;;;;;35.65;22.88;;;7.90;99.90;;;;;;4993757;28;20026;-86
2022/11/09 01:43:24;;;;;;;33.58;21.08;;;7.90;99.90;;;;;;5010369;28;20027;-87
2022/11/09 01:46:02;;;;;;;35.92;21.83;;;8.00;99.90;;;;;;4995758;28;20019;-85
2022/11/09 01:48:44;;;;;;;33.20;22.00;;;7.90;99.90;;;;;;4987754;28;20030;-88
2022/11/09 01:51:36;;;;;;;34.30;20.48;;;7.90;99.90;;;;;;4993927;28;20034;-87
2022/11/09 01:54:19;;;;;;;36.72;21.70;;;8.00;99.90;;;;;;5005279;28;20054;-89
2022/11/09 01:56:49;;;;;;;41.80;23.67;;;8.00;99.90;;;;;;4996544;28;20057;-85
2022/11/09 01:59:21;;;;;;;36.13;20.23;;;8.00;99.90;;;;;;5011602;28;20015;-87
2022/11/09 02:01:48;;;;;;;37.65;22.27;;;8.00;99.90;;;;;;5009290;28;20045;-88
2022/11/09 02:04:40;;;;;;;29.55;20.08;;;8.00;99.90;;;;;;5025170;28;20021;-88
2022/11/09 02:07:09;;;;;;;36.38;23.58;;;8.10;99.90;;;;;;5008793;28;20029;-86
2022/11/09 02:09:43;;;;;;;34.92;21.45;;;8.10;99.90;;;;;;5014140;28;20026;-90
2022/11/09 02:12:10;;;;;;;36.13;23.90;;;8.10;99.90;;;;;;4995539;28;20030;-90
2022/11/09 02:14:37;;;;;;;40.85;23.83;;;8.20;99.90;;;;;;4999784;28;20503;-90
2022/11/09 02:17:04;;;;;;;;;;;8.20;99.90;;;;;;5028899;28;20018;-90
2022/11/09 02:19:30;;;;;;;34.40;21.17;;;8.20;99.90;;;;;;5022722;28;19897;-84
2022/11/09 02:21:56;;;;;;;35.05;22.65;;;8.10;99.90;;;;;;5018521;28;20025;-88
2022/11/09 02:24:22;;;;;;;32.47;20.33;;;8.10;99.90;;;;;;5019610;28;20037;-89
2022/11/09 02:26:51;;;;;;;38.22;22.15;;;8.10;99.90;;;;;;5029020;28;20030;-90
2022/11/09 02:29:21;;;;;;;38.20;22.55;;;8.00;99.90;;;;;;5009826;28;20018;-90
2022/11/09 02:31:56;;;;;;;35.65;20.95;;;8.10;99.90;;;;;;5003050;28;20026;-90
2022/11/09 02:34:24;;;;;;;31.52;19.85;;;8.10;99.90;;;;;;5007123;28;20026;-90
2022/11/09 02:36:52;;;;;;;28.77;16.10;;;8.10;99.90;;;;;;5034248;28;20049;-86
2022/11/09 02:39:24;;;;;;;35.75;20.20;;;8.10;99.90;;;;;;5034922;28;20507;-89
2022/11/09 02:41:58;;;;;;;35.67;20.58;;;8.10;99.90;;;;;;5032046;28;20102;-89
2022/11/09 02:44:25;;;;;;;33.05;19.27;;;8.10;99.90;;;;;;5015323;28;20030;-91
2022/11/09 02:46:51;;;;;;;26.80;17.75;;;8.10;99.90;;;;;;5015972;28;20026;-89
2022/11/09 02:49:17;;;;;;;26.55;17.48;;;8.20;99.90;;;;;;5025903;28;20382;-88
2022/11/09 02:51:42;;;;;;;28.52;18.17;;;8.20;99.90;;;;;;5001187;28;20098;-89
2022/11/09 02:54:08;;;;;;;23.95;15.55;;;8.20;99.90;;;;;;4998310;28;20391;-90
2022/11/09 02:56:34;;;;;;;24.83;16.05;;;8.20;99.90;;;;;;4986827;28;20042;-89
2022/11/09 02:59:02;;;;;;;25.15;15.95;;;8.30;99.90;;;;;;4998761;28;20014;-89
2022/11/09 03:01:28;;;;;;;24.77;17.45;;;8.30;99.90;;;;;;4996336;28;20026;-90
2022/11/09 03:03:54;;;;;;;28.13;17.73;;;8.30;99.90;;;;;;4997099;28;20034;-89
2022/11/09 03:06:32;;;;;;;25.02;16.85;;;8.30;99.90;;;;;;5000164;28;20432;-87
2022/11/09 03:09:10;;;;;;;29.77;16.55;;;8.40;99.90;;;;;;5014318;28;20038;-89
2022/11/09 03:11:39;;;;;;;26.02;14.52;;;8.40;99.90;;;;;;4988400;28;20022;-88
2022/11/09 03:14:05;;;;;;;22.27;14.85;;;8.40;99.90;;;;;;4989991;28;20041;-88
2022/11/09 03:16:31;;;;;;;24.10;15.57;;;8.40;99.90;;;;;;4997903;28;20042;-90
2022/11/09 03:18:57;;;;;;;27.63;16.48;;;8.40;99.90;;;;;;4996683;28;20033;-91
2022/11/09 03:21:24;;;;;;;22.10;14.82;;;8.40;99.90;;;;;;5000153;28;20022;-89
2022/11/09 03:23:50;;;;;;;30.45;16.30;;;8.40;99.90;;;;;;4998387;28;20384;-88
2022/11/09 03:26:16;;;;;;;26.13;15.93;;;8.40;99.90;;;;;;4995377;28;20041;-88
2022/11/09 03:28:42;;;;;;;26.48;14.63;;;8.40;99.90;;;;;;5010993;28;20027;-88
2022/11/09 03:31:08;;;;;;;23.48;14.02;;;8.50;99.90;;;;;;4994913;28;20065;-88
2022/11/09 03:33:35;;;;;;;22.60;15.30;;;8.50;99.90;;;;;;4992052;28;20015;-88
2022/11/09 03:36:01;;;;;;;25.77;14.73;;;8.50;99.90;;;;;;4994421;28;20377;-88
2022/11/09 03:38:29;;;;;;;24.05;15.27;;;8.60;99.90;;;;;;4994102;28;20031;-88
2022/11/09 03:40:57;;;;;;;22.63;14.90;;;8.60;99.90;;;;;;5002154;28;20026;-89
2022/11/09 03:43:23;;;;;;;21.63;14.02;;;8.60;99.90;;;;;;5012166;28;20105;-88
2022/11/09 03:45:49;;;;;;;24.55;16.33;;;8.60;99.90;;;;;;5006793;28;20046;-88
2022/11/09 03:48:15;;;;;;;21.17;13.68;;;8.60;99.90;;;;;;4994723;28;20110;-88
2022/11/09 03:50:42;;;;;;;24.38;15.88;;;8.60;99.90;;;;;;5003036;28;20029;-88
2022/11/09 03:53:09;;;;;;;21.83;14.95;;;8.60;99.90;;;;;;5024999;28;20109;-88
2022/11/09 03:55:36;;;;;;;24.75;14.68;;;8.60;99.90;;;;;;5012726;28;20030;-88
2022/11/09 03:58:03;;;;;;;22.97;15.00;;;8.70;99.90;;;;;;5006506;28;20026;-86
2022/11/09 04:00:29;;;;;;;22.40;15.75;;;8.70;99.90;;;;;;5034583;28;20395;-86
2022/11/09 04:02:55;;;;;;;23.48;14.57;;;8.70;99.90;;;;;;5001758;28;20097;-90
2022/11/09 04:05:21;;;;;;;22.02;15.65;;;8.70;99.90;;;;;;5011194;28;20030;-89
2022/11/09 04:07:50;;;;;;;23.83;14.52;;;8.70;99.90;;;;;;5006537;28;20535;-88
2022/11/09 04:10:16;;;;;;;23.42;15.48;;;8.70;99.90;;;;;;5018897;28;20050;-88
2022/11/09 04:12:42;;;;;;;23.25;15.10;;;8.70;99.90;;;;;;5013795;28;20022;-90
2022/11/09 04:15:08;;;;;;;23.95;14.98;;;8.70;99.90;;;;;;5007417;28;20042;-88
2022/11/09 04:17:34;;;;;;;22.58;15.38;;;8.80;99.90;;;;;;5014101;28;20052;-88
2022/11/09 04:20:00;;;;;;;22.08;16.30;;;8.80;99.90;;;;;;5017858;28;20002;-89
2022/11/09 04:22:26;;;;;;;24.33;15.43;;;8.80;99.90;;;;;;5027382;28;20089;-88
2022/11/09 04:24:52;;;;;;;20.95;14.60;;;8.90;99.90;;;;;;5008656;28;20027;-88
2022/11/09 04:27:19;;;;;;;24.45;16.23;;;8.80;99.90;;;;;;5008025;28;20023;-89
2022/11/09 04:29:45;;;;;;;23.30;16.52;;;8.90;99.90;;;;;;4999653;28;20446;-88
2022/11/09 04:32:11;;;;;;;23.80;15.88;;;8.90;99.90;;;;;;5002798;28;20031;-88
2022/11/09 04:34:40;;;;;;;26.27;16.40;;;8.90;99.90;;;;;;5000364;28;20077;-87
2022/11/09 04:37:06;;;;;;;22.80;15.32;;;8.90;99.90;;;;;;5001048;28;20085;-89
2022/11/09 04:39:32;;;;;;;29.17;15.50;;;8.90;99.90;;;;;;5000644;28;20014;-91
2022/11/09 04:41:58;;;;;;;25.77;15.60;;;8.90;99.90;;;;;;5004299;28;20450;-89
2022/11/09 04:44:24;;;;;;;21.20;14.70;;;8.90;99.90;;;;;;5015472;28;20030;-90
2022/11/09 04:46:50;;;;;;;21.90;16.08;;;9.00;99.90;;;;;;5000527;28;20033;-88
2022/11/09 04:49:15;;;;;;;20.35;14.43;;;9.00;99.90;;;;;;4999120;28;20033;-88
2022/11/09 04:51:41;;;;;;;21.00;15.80;;;9.00;99.90;;;;;;4999253;28;20030;-89
2022/11/09 04:54:07;;;;;;;25.13;15.57;;;9.10;99.90;;;;;;5005750;28;20046;-89
2022/11/09 04:56:33;;;;;;;21.92;14.80;;;9.00;99.90;;;;;;5003501;28;20038;-89
2022/11/09 04:58:59;;;;;;;22.55;15.55;;;9.00;99.90;;;;;;5011155;28;20014;-88
2022/11/09 05:01:25;;;;;;;24.05;16.80;;;9.00;99.90;;;;;;5015634;28;20081;-81
2022/11/09 05:03:51;;;;;;;19.05;15.55;;;9.00;99.90;;;;;;5039044;28;20030;-88
2022/11/09 05:06:31;;;;;;;22.60;15.07;;;9.00;99.90;;;;;;5031379;28;20030;-90
2022/11/09 05:09:06;;;;;;;22.55;14.88;;;9.00;99.90;;;;;;5004104;28;20045;-89
2022/11/09 05:11:33;;;;;;;19.70;14.90;;;9.10;99.90;;;;;;4993460;28;20456;-90
2022/11/09 05:13:59;;;;;;;23.40;14.50;;;9.10;99.90;;;;;;5033424;28;20033;-90
2022/11/09 05:16:27;;;;;;;21.05;14.35;;;9.10;99.90;;;;;;5004196;28;20042;-89
2022/11/09 05:18:52;;;;;;;23.05;15.00;;;9.10;99.90;;;;;;5006333;28;20018;-90
2022/11/09 05:21:19;;;;;;;20.58;15.45;;;9.20;99.90;;;;;;4997601;28;20026;-88
2022/11/09 05:23:57;;;;;;;23.70;15.63;;;9.30;99.90;;;;;;5000226;28;20022;-92
2022/11/09 05:26:24;;;;;;;23.77;15.55;;;9.30;99.90;;;;;;5013094;28;20035;-91
2022/11/09 05:28:51;;;;;;;20.38;14.60;;;9.30;99.90;;;;;;5004740;28;20038;-90
2022/11/09 05:31:17;;;;;;;23.73;15.17;;;9.30;99.90;;;;;;5012346;28;20057;-92
2022/11/09 05:33:43;;;;;;;20.20;13.90;;;9.30;99.90;;;;;;5004915;28;20041;-88
2022/11/09 05:36:09;;;;;;;19.83;14.05;;;9.30;99.90;;;;;;4996804;28;20399;-91
2022/11/09 05:38:35;;;;;;;20.77;14.55;;;9.30;99.90;;;;;;4999613;28;20026;-90
2022/11/09 05:41:01;;;;;;;25.77;14.27;;;9.30;99.90;;;;;;4995819;28;20034;-90
2022/11/09 05:43:26;;;;;;;21.58;14.25;;;9.30;99.90;;;;;;4998578;28;20083;-90
2022/11/09 05:45:52;;;;;;;18.00;13.50;;;9.40;99.90;;;;;;5003870;28;20026;-93
2022/11/09 05:48:18;;;;;;;20.45;14.85;;;9.40;99.90;;;;;;4997575;28;20029;-90
2022/11/09 05:50:46;;;;;;;21.23;14.57;;;9.50;99.90;;;;;;5001565;28;20034;-90
2022/11/09 05:53:12;;;;;;;19.95;14.85;;;9.60;99.90;;;;;;5001903;28;20042;-90
2022/11/09 05:55:39;;;;;;;20.15;13.85;;;9.60;99.90;;;;;;5018290;28;20030;-89
2022/11/09 05:58:05;;;;;;;20.52;15.07;;;9.70;99.90;;;;;;5007808;28;20026;-89
2022/11/09 06:00:32;;;;;;;22.30;14.48;;;9.70;99.90;;;;;;5011214;28;20090;-88
2022/11/09 06:03:02;;;;;;;18.00;13.90;;;9.80;99.90;;;;;;5002451;28;20034;-92
2022/11/09 06:05:28;;;;;;;17.42;12.70;;;9.90;99.90;;;;;;4990006;28;20146;-92
2022/11/09 06:07:54;;;;;;;17.50;13.32;;;10.00;99.90;;;;;;5013041;28;20070;-89
2022/11/09 06:10:21;;;;;;;20.00;13.85;;;10.00;99.90;;;;;;5013668;28;20030;-91
2022/11/09 06:12:50;;;;;;;16.17;12.60;;;10.00;99.90;;;;;;5009258;28;20045;-88
2022/11/09 06:15:16;;;;;;;21.40;14.02;;;10.00;99.90;;;;;;5016638;28;20054;-91
2022/11/09 06:17:41;;;;;;;18.90;13.23;;;9.90;99.90;;;;;;5006591;28;20026;-88
2022/11/09 06:20:08;;;;;;;22.02;13.20;;;9.90;99.90;;;;;;5004131;28;20093;-92
2022/11/09 06:22:33;;;;;;;16.52;11.75;;;9.90;99.90;;;;;;4998865;28;20018;-90
2022/11/09 06:24:59;;;;;;;23.08;14.48;;;9.90;99.90;;;;;;5008753;28;20053;-90
2022/11/09 06:27:25;;;;;;;22.08;14.30;;;9.80;99.90;;;;;;5010907;28;20039;-91
2022/11/09 06:29:51;;;;;;;21.45;14.07;;;9.80;99.90;;;;;;5003537;28;20168;-90
2022/11/09 06:32:17;;;;;;;19.77;13.95;;;9.80;99.90;;;;;;5008463;28;20004;-92
2022/11/09 06:34:43;;;;;;;19.75;15.30;;;9.90;99.90;;;;;;5013849;28;20102;-88
2022/11/09 06:37:09;;;;;;;19.95;13.57;;;9.90;99.90;;;;;;5007048;28;20034;-89
2022/11/09 06:39:35;;;;;;;23.88;13.88;;;9.90;99.90;;;;;;4987531;28;20015;-88
2022/11/09 06:42:01;;;;;;;25.15;14.50;;;9.90;99.90;;;;;;4994052;28;20041;-88
2022/11/09 06:44:26;;;;;;;23.02;14.02;;;9.90;99.90;;;;;;4957342;28;20038;-92
2022/11/09 06:46:52;;;;;;;18.92;12.85;;;9.80;99.90;;;;;;4959155;28;20039;-88
2022/11/09 06:49:18;;;;;;;19.92;13.98;;;9.80;99.90;;;;;;4946755;29;20027;-90
2022/11/09 06:51:45;;;;;;;21.70;14.35;;;9.80;99.90;;;;;;4957127;28;20028;-90
2022/11/09 06:54:11;;;;;;;21.15;13.25;;;9.80;99.90;;;;;;4960059;29;20051;-84
2022/11/09 06:56:37;;;;;;;23.45;14.20;;;9.80;99.90;;;;;;4961083;28;20114;-87
2022/11/09 06:59:03;;;;;;;22.02;14.27;;;9.70;99.90;;;;;;4957897;28;20033;-86
2022/11/09 07:01:29;;;;;;;23.00;14.50;;;9.80;99.90;;;;;;4958853;28;20031;-86
2022/11/09 07:03:54;;;;;;;18.85;13.40;;;9.80;99.90;;;;;;4953520;28;20019;-88
2022/11/09 07:06:21;;;;;;;20.27;14.07;;;9.80;99.90;;;;;;4937690;29;20061;-88
2022/11/09 07:08:47;;;;;;;23.40;15.02;;;9.90;99.90;;;;;;4949340;29;20382;-89
2022/11/09 07:11:18;;;;;;;24.25;14.95;;;10.00;99.90;;;;;;4960997;28;20061;-87
2022/11/09 07:13:47;;;;;;;21.88;15.07;;;10.10;99.90;;;;;;4966333;28;20023;-88
2022/11/09 07:16:16;;;;;;;22.58;13.90;;;10.10;99.90;;;;;;4942700;28;20138;-88
2022/11/09 07:18:45;;;;;;;21.33;14.35;;;10.10;99.90;;;;;;4945758;29;20027;-86
2022/11/09 07:21:11;;;;;;;20.67;14.73;;;10.10;99.90;;;;;;4974450;28;20138;-86
2022/11/09 07:23:37;;;;;;;20.70;15.25;;;10.10;99.90;;;;;;5006428;28;20022;-84
2022/11/09 07:26:03;;;;;;;22.88;14.02;;;10.10;99.90;;;;;;4997451;28;20089;-85
2022/11/09 07:28:29;;;;;;;22.55;14.55;;;10.10;99.90;;;;;;5008328;28;20041;-87
2022/11/09 07:30:57;;;;;;;23.92;15.52;;;10.10;99.90;;;;;;5008647;28;20023;-87
2022/11/09 07:33:23;;;;;;;22.15;14.05;;;10.10;99.90;;;;;;5004072;28;20365;-87
2022/11/09 07:35:50;;;;;;;19.17;13.75;;;10.10;99.90;;;;;;4998395;28;20041;-86
2022/11/09 07:38:16;;;;;;;23.05;13.95;;;10.10;99.90;;;;;;4998084;28;20030;-87
2022/11/09 07:40:43;;;;;;;19.48;12.85;;;10.10;99.90;;;;;;4998372;28;20030;-87
2022/11/09 07:43:10;;;;;;;21.50;14.18;;;10.10;99.90;;;;;;4997509;28;20049;-86
2022/11/09 07:45:36;;;;;;;16.65;12.65;;;10.10;99.90;;;;;;4993226;28;20030;-87
2022/11/09 07:48:05;;;;;;;17.65;12.60;;;10.20;99.90;;;;;;4990836;28;20027;-89
2022/11/09 07:50:33;;;;;;;17.30;12.85;;;10.10;99.90;;;;;;4997344;28;21563;-89
2022/11/09 07:53:00;;;;;;;19.50;13.98;;;10.10;99.90;;;;;;4998380;28;20087;-89
2022/11/09 07:55:27;;;;;;;19.10;12.98;;;10.00;99.90;;;;;;5012730;28;20014;-85
2022/11/09 07:58:03;;;;;;;22.20;14.10;;;10.10;99.90;;;;;;5004136;28;20023;-89
2022/11/09 08:00:31;;;;;;;21.17;13.48;;;10.10;99.90;;;;;;4997930;28;20034;-88
2022/11/09 08:02:57;;;;;;;19.13;13.05;;;10.10;99.90;;;;;;4982466;28;20535;-86
2022/11/09 08:05:24;;;;;;;21.70;13.95;;;10.10;99.90;;;;;;4997950;28;20022;-87
2022/11/09 08:07:58;;;;;;;22.75;13.98;;;10.10;99.90;;;;;;4997297;28;20022;-89
2022/11/09 08:10:26;;;;;;;27.08;17.38;;;10.10;99.90;;;;;;5000685;28;20054;-85
2022/11/09 08:12:57;;;;;;;24.10;15.45;;;10.10;99.90;;;;;;5013178;28;20018;-87
2022/11/09 08:15:23;;;;;;;20.63;15.10;;;10.10;99.90;;;;;;5008997;28;20041;-87
2022/11/09 08:17:50;;;;;;;31.25;18.00;;;10.10;99.90;;;;;;4997998;28;20027;-87
2022/11/09 08:20:16;;;;;;;25.65;16.13;;;10.10;99.90;;;;;;5005738;28;20162;-88
2022/11/09 08:22:46;;;;;;;21.95;15.32;;;10.10;99.90;;;;;;5008046;28;20030;-87
2022/11/09 08:25:12;;;;;;;23.40;15.65;;;10.10;99.90;;;;;;5006940;28;20037;-86
2022/11/09 08:27:39;;;;;;;21.80;14.50;;;10.30;99.90;;;;;;4999083;28;20044;-88
2022/11/09 08:30:14;;;;;;;22.58;14.38;;;10.30;99.90;;;;;;5005065;28;20073;-87
2022/11/09 08:32:40;;;;;;;23.60;15.75;;;10.30;99.90;;;;;;5037112;28;20023;-87
2022/11/09 08:35:09;;;;;;;27.25;15.95;;;10.40;99.90;;;;;;4997464;28;20026;-86
2022/11/09 08:37:36;;;;;;;19.67;13.48;;;10.40;99.90;;;;;;4996711;28;20026;-88
2022/11/09 08:40:06;;;;;;;24.45;15.27;;;10.40;99.90;;;;;;4996330;28;20034;-86
2022/11/09 08:42:32;;;;;;;23.85;15.40;;;10.40;99.90;;;;;;4994973;28;20460;-89
2022/11/09 08:44:58;;;;;;;20.35;14.75;;;10.40;99.90;;;;;;5011518;28;20388;-87
2022/11/09 08:47:24;;;;;;;19.58;12.65;;;10.40;99.90;;;;;;5005804;28;20025;-87
2022/11/09 08:49:52;;;;;;;17.33;12.18;;;10.40;99.90;;;;;;5001843;28;20033;-87
2022/11/09 08:52:18;;;;;;;17.48;12.25;;;10.40;99.90;;;;;;4994833;28;20052;-86
2022/11/09 08:54:44;;;;;;;18.65;11.93;;;10.50;99.90;;;;;;5010980;28;20412;-87
2022/11/09 08:57:10;;;;;;;15.88;11.43;;;10.50;99.90;;;;;;4995809;28;20035;-88
2022/11/09 08:59:36;;;;;;;15.88;11.80;;;10.50;99.90;;;;;;5024315;28;20071;-88
2022/11/09 09:02:02;;;;;;;17.73;10.98;;;10.40;99.90;;;;;;4996560;28;20121;-87
2022/11/09 09:04:28;;;;;;;16.58;11.13;;;10.40;99.90;;;;;;5000511;28;20101;-87
2022/11/09 09:06:54;;;;;;;16.17;11.88;;;10.40;99.90;;;;;;5006343;28;20058;-87
2022/11/09 09:09:21;;;;;;;15.38;10.25;;;10.40;99.90;;;;;;4997343;28;20060;-89
2022/11/09 09:11:46;;;;;;;16.98;12.20;;;10.40;99.90;;;;;;4995818;28;20022;-87
2022/11/09 09:14:13;;;;;;;15.32;9.55;;;10.40;99.90;;;;;;4997707;28;20045;-88
2022/11/09 09:16:39;;;;;;;15.00;10.30;;;10.40;99.90;;;;;;5010363;28;20108;-87
2022/11/09 09:19:05;;;;;;;18.58;11.65;;;10.30;99.90;;;;;;4996970;28;20468;-86
2022/11/09 09:21:31;;;;;;;17.33;12.25;;;10.30;99.90;;;;;;4996741;28;20031;-87
2022/11/09 09:23:57;;;;;;;22.98;12.18;;;10.30;99.90;;;;;;5014017;28;20031;-86
2022/11/09 09:26:23;;;;;;;16.50;11.30;;;10.30;99.90;;;;;;5012248;28;20031;-87
2022/11/09 09:28:50;;;;;;;17.33;11.13;;;10.30;99.90;;;;;;5009485;28;20375;-87
2022/11/09 09:31:16;;;;;;;;;;;10.30;99.90;;;;;;5004491;28;20022;-87
2022/11/09 09:33:42;;;;;;;14.15;10.45;;;10.40;99.90;;;;;;5000410;28;20268;-85
2022/11/09 09:36:18;;;;;;;17.20;11.13;;;10.40;99.90;;;;;;5019066;28;20046;-88
2022/11/09 09:38:44;;;;;;;18.70;12.07;;;10.40;99.90;;;;;;4996396;28;20070;-84
2022/11/09 09:41:33;;;;;;;18.25;11.77;;;10.40;99.90;;;;;;5025816;28;20037;-86
2022/11/09 09:44:05;;;;;;;17.23;10.75;;;10.50;99.90;;;;;;5013911;28;20023;-86
2022/11/09 09:46:39;;;;;;;18.63;11.68;;;10.50;99.90;;;;;;4998548;28;20031;-87
2022/11/09 09:49:51;;;;;;;16.02;10.73;;;10.50;99.90;;;;;;4999644;28;20034;-87
2022/11/09 09:52:44;;;;;;;15.35;11.82;;;10.50;99.90;;;;;;4919874;29;20034;-88
2022/11/09 09:55:26;;;;;;;17.75;11.55;;;10.50;99.90;;;;;;4921492;29;20096;-86
2022/11/09 09:58:01;;;;;;;16.80;12.00;;;10.50;99.90;;;;;;4900997;29;20035;-87
2022/11/09 10:00:27;;;;;;;18.25;11.63;;;10.50;99.90;;;;;;4911003;29;20512;-88
2022/11/09 10:02:54;;;;;;;17.98;12.93;;;10.50;99.90;;;;;;4944066;29;20036;-88
2022/11/09 10:05:28;;;;;;;17.55;12.35;;;10.50;99.90;;;;;;4951158;29;20024;-90
2022/11/09 10:08:17;;;;;;;17.23;11.65;;;10.50;99.90;;;;;;4937135;29;20051;-87
2022/11/09 10:10:56;;;;;;;19.55;14.30;;;10.50;99.90;;;;;;4945895;29;20082;-86
2022/11/09 10:13:43;;;;;;;17.88;12.35;;;10.50;99.90;;;;;;4950846;29;20645;-87
2022/11/09 10:16:56;;;;;;;18.77;14.00;;;10.50;99.90;;;;;;4930455;29;20071;-88
2022/11/09 10:19:47;;;;;;;20.10;14.15;;;10.50;99.90;;;;;;4841479;29;20052;-88
2022/11/09 10:22:20;;;;;;;20.02;13.82;;;10.50;99.90;;;;;;4826170;29;20086;-90
2022/11/09 10:24:57;;;;;;;21.23;13.43;;;10.50;99.90;;;;;;4904617;29;20147;-88
2022/11/09 10:27:49;;;;;;;19.65;14.15;;;10.50;99.90;;;;;;4993757;28;20025;-92
2022/11/09 10:30:17;;;;;;;21.67;15.02;;;10.40;99.90;;;;;;5005842;28;20112;-87
2022/11/09 10:32:53;;;;;;;21.00;15.60;;;10.40;99.90;;;;;;4996296;28;20114;-87
2022/11/09 10:35:25;;;;;;;23.75;15.02;;;10.40;99.90;;;;;;5001115;28;20531;-88
2022/11/09 10:37:55;;;;;;;23.15;14.65;;;10.30;99.90;;;;;;4996429;28;20037;-88
2022/11/09 10:40:48;;;;;;;20.73;13.68;;;10.20;99.90;;;;;;5014783;28;20046;-86
2022/11/09 10:43:14;;;;;;;19.92;12.32;;;10.20;99.90;;;;;;5019533;28;20034;-87
2022/11/09 10:45:42;;;;;;;16.80;13.00;;;10.20;99.90;;;;;;5014983;28;20018;-88
2022/11/09 10:48:09;;;;;;;19.27;12.57;;;10.10;99.90;;;;;;5013583;28;20407;-89
2022/11/09 10:50:47;;;;;;;20.45;13.85;;;10.10;99.90;;;;;;5000414;28;20025;-88
2022/11/09 10:53:27;;;;;;;23.75;14.95;;;10.00;99.90;;;;;;5013447;28;20044;-87
2022/11/09 10:55:57;;;;;;;15.82;10.52;;;10.00;99.90;;;;;;5012449;28;20029;-88
2022/11/09 10:58:29;;;;;;;25.40;16.98;;;10.00;99.90;;;;;;4996379;28;20455;-86
2022/11/09 11:01:11;;;;;;;22.65;14.43;;;9.90;99.90;;;;;;5015607;28;20029;-89
2022/11/09 11:03:38;;;;;;;21.20;12.70;;;10.00;99.90;;;;;;5025742;28;20120;-87
2022/11/09 11:06:22;;;;;;;22.33;14.75;;;9.90;99.90;;;;;;4999209;28;20428;-89
2022/11/09 11:08:51;;;;;;;21.10;14.57;;;9.90;99.90;;;;;;5013572;28;20052;-89
2022/11/09 11:11:21;;;;;;;24.85;14.90;;;9.90;99.90;;;;;;5000893;28;20031;-88
2022/11/09 11:13:49;;;;;;;23.30;14.65;;;9.90;99.90;;;;;;5006254;28;20026;-87
2022/11/09 11:16:25;;;;;;;23.83;16.88;;;9.90;99.90;;;;;;5015048;28;20124;-85
2022/11/09 11:18:51;;;;;;;25.08;16.02;;;9.90;99.90;;;;;;5023517;28;20030;-86
2022/11/09 11:21:19;;;;;;;25.20;15.20;;;9.90;99.90;;;;;;5031674;28;20351;-87
2022/11/09 11:24:11;;;;;;;23.40;13.90;;;10.00;99.90;;;;;;4997097;28;20018;-89
2022/11/09 11:26:48;;;;;;;22.40;14.80;;;10.00;99.90;;;;;;5020865;28;20029;-89
2022/11/09 11:29:45;;;;;;;18.58;13.13;;;10.00;99.90;;;;;;5022827;28;20077;-85
2022/11/09 11:32:13;;;;;;;;;;;10.00;99.90;;;;;;5008418;28;20399;-86
2022/11/09 11:34:40;;;;;;;22.20;15.68;;;10.00;99.90;;;;;;5016536;28;19916;-88
2022/11/09 11:37:40;;;;;;;21.77;15.07;;;10.00;99.90;;;;;;5031844;28;20061;-88
2022/11/09 11:40:19;;;;;;;22.85;14.45;;;10.00;99.90;;;;;;5012629;28;20032;-86
2022/11/09 11:43:06;;;;;;;18.65;12.50;;;10.00;99.90;;;;;;4996270;28;20137;-88
2022/11/09 11:46:00;;;;;;;23.42;12.23;;;10.10;99.90;;;;;;5000658;28;20033;-88
2022/11/09 11:48:33;;;;;;;18.00;13.38;;;10.10;99.90;;;;;;5011556;28;20037;-87
2022/11/09 11:51:18;;;;;;;15.00;10.20;;;10.10;99.90;;;;;;5023916;28;20489;-89
2022/11/09 11:53:47;;;;;;;20.58;12.63;;;10.10;99.90;;;;;;5020294;28;20095;-87
2022/11/09 11:56:41;;;;;;;13.65;11.30;;;10.10;99.90;;;;;;5027223;28;20033;-84
2022/11/09 11:59:41;;;;;;;22.02;11.93;;;10.20;99.90;;;;;;5014962;28;20393;-88
2022/11/09 12:02:47;;;;;;;18.63;11.95;;;10.20;99.90;;;;;;5010891;28;20092;-87
2022/11/09 12:05:32;;;;;;;15.27;10.95;;;10.20;99.90;;;;;;5008114;28;20018;-86
2022/11/09 12:08:04;;;;;;;18.48;10.10;;;10.30;99.90;;;;;;5036073;28;20154;-87
2022/11/09 12:10:57;;;;;;;16.42;10.15;;;10.30;99.90;;;;;;5032705;28;20022;-88
2022/11/09 12:13:59;;;;;;;15.50;10.48;;;10.30;99.90;;;;;;5017733;28;20076;-87
2022/11/09 12:16:34;;;;;;;16.83;10.25;;;10.30;99.90;;;;;;5003990;28;20050;-89
2022/11/09 12:19:10;;;;;;;13.88;11.30;;;10.30;99.90;;;;;;5004276;28;20030;-88
2022/11/09 12:22:02;;;;;;;13.77;10.80;;;10.40;99.90;;;;;;4986827;28;20061;-88
2022/11/09 12:24:56;;;;;;;11.13;8.43;;;10.40;99.90;;;;;;4981477;28;20090;-87
2022/11/09 12:27:57;;;;;;;13.27;8.95;;;10.40;99.90;;;;;;4985123;28;20449;-90
2022/11/09 12:30:35;;;;;;;14.00;8.43;;;10.40;99.90;;;;;;4979907;28;20029;-88
2022/11/09 12:33:15;;;;;;;12.98;8.85;;;10.40;99.90;;;;;;4981523;28;20037;-90
2022/11/09 12:35:54;;;;;;;14.40;10.27;;;10.40;99.90;;;;;;4990354;28;20082;-88
2022/11/09 12:38:23;;;;;;;13.85;9.57;;;10.40;99.90;;;;;;4981941;28;20023;-88
2022/11/09 12:41:12;;;;;;;18.83;11.20;;;10.50;99.90;;;;;;4985944;28;20034;-89
2022/11/09 12:43:52;;;;;;;12.80;9.88;;;10.50;99.90;;;;;;4980532;28;20109;-88
2022/11/09 12:46:23;;;;;;;13.93;10.23;;;10.40;99.90;;;;;;4964925;28;20039;-88
2022/11/09 12:48:49;;;;;;;13.30;7.53;;;10.40;99.90;;;;;;4968708;28;20059;-89